createdAt,value
2022-10-30T00:01:46.854Z,101585.31
2022-10-30T00:04:14.539Z,101591.78
2022-10-30T00:06:42.151Z,101577.69
2022-10-30T00:09:11.042Z,101583.72
2022-10-30T00:11:38.583Z,101589.03
2022-10-30T00:14:06.154Z,101574.03
2022-10-30T00:16:33.795Z,101564.22
2022-10-30T00:19:01.864Z,101566.81
2022-10-30T00:21:29.436Z,101573.00
2022-10-30T00:23:57.014Z,101569.38
2022-10-30T00:26:25.683Z,101568.53
2022-10-30T00:28:55.329Z,101582.63
2022-10-30T00:31:23.558Z,101576.53
2022-10-30T00:33:52.365Z,101577.63
2022-10-30T00:36:20.912Z,101565.13
2022-10-30T00:38:49.772Z,101572.97
2022-10-30T00:41:23.098Z,101552.75
2022-10-30T00:43:51.429Z,101566.72
2022-10-30T00:46:26.603Z,101567.50
2022-10-30T00:48:59.382Z,101566.63
2022-10-30T00:51:29.139Z,101554.28
2022-10-30T00:54:01.194Z,101555.28
2022-10-30T00:56:29.392Z,101558.06
2022-10-30T00:59:10.116Z,101559.81
2022-10-30T01:01:40.698Z,101567.81
2022-10-30T01:04:08.923Z,101561.75
2022-10-30T01:06:40.019Z,101549.34
2022-10-30T01:09:07.962Z,101549.44
2022-10-30T01:11:35.796Z,101548.44
2022-10-30T01:14:08.297Z,101543.84
2022-10-30T01:17:06.259Z,101538.50
2022-10-30T01:22:45.021Z,101538.50
2022-10-30T01:25:27.776Z,101534.00
2022-10-30T01:28:35.450Z,101534.91
2022-10-30T01:31:24.732Z,101526.31
2022-10-30T01:34:05.161Z,101533.34
2022-10-30T01:36:40.885Z,101517.72
2022-10-30T01:39:14.723Z,101524.81
2022-10-30T01:41:42.717Z,101512.44
2022-10-30T01:44:18.192Z,101513.34
2022-10-30T01:46:45.655Z,101514.09
2022-10-30T01:49:16.322Z,101515.94
2022-10-30T01:52:02.137Z,101514.50
2022-10-30T01:55:08.194Z,101519.47
2022-10-30T01:57:39.306Z,101505.44
2022-10-30T02:00:15.737Z,101501.88
2022-10-30T02:02:49.826Z,101505.41
2022-10-30T02:05:36.700Z,101499.44
2022-10-30T02:08:04.639Z,101510.06
2022-10-30T02:10:35.187Z,101493.38
2022-10-30T02:13:02.821Z,101510.06
2022-10-30T02:15:31.877Z,101503.13
2022-10-30T02:18:00.401Z,101506.59
2022-10-30T02:20:28.663Z,101501.22
2022-10-30T02:22:59.261Z,101503.88
2022-10-30T02:25:31.599Z,101498.66
2022-10-30T02:27:59.906Z,101510.06
2022-10-30T02:30:29.608Z,101504.88
2022-10-30T02:32:57.650Z,101498.66
2022-10-30T02:35:25.501Z,101503.34
2022-10-30T02:37:53.342Z,101505.16
2022-10-30T02:40:20.906Z,101501.69
2022-10-30T02:42:53.458Z,101488.34
2022-10-30T02:45:21.560Z,101500.63
2022-10-30T02:47:49.192Z,101500.66
2022-10-30T02:50:17.221Z,101490.88
2022-10-30T02:52:45.170Z,101505.00
2022-10-30T02:55:12.910Z,101504.13
2022-10-30T02:57:41.736Z,101500.72
2022-10-30T03:00:09.963Z,101500.72
2022-10-30T03:02:37.729Z,101498.16
2022-10-30T03:05:05.651Z,101492.72
2022-10-30T03:07:33.239Z,101487.53
2022-10-30T03:10:00.788Z,101499.00
2022-10-30T03:12:28.366Z,101491.94
2022-10-30T03:14:55.869Z,101498.97
2022-10-30T03:17:23.447Z,101495.38
2022-10-30T03:19:51.595Z,101487.44
2022-10-30T03:22:19.200Z,101489.25
2022-10-30T03:24:46.839Z,101487.50
2022-10-30T03:27:14.433Z,101489.22
2022-10-30T03:29:41.989Z,101486.56
2022-10-30T03:32:10.990Z,101482.13
2022-10-30T03:34:46.080Z,101497.16
2022-10-30T03:37:13.711Z,101492.84
2022-10-30T03:39:41.203Z,101500.72
2022-10-30T03:42:08.726Z,101493.72
2022-10-30T03:44:36.229Z,101494.56
2022-10-30T03:47:04.511Z,101493.69
2022-10-30T03:49:39.834Z,101507.78
2022-10-30T03:52:11.612Z,101503.41
2022-10-30T03:54:39.198Z,101511.31
2022-10-30T03:57:08.319Z,101508.75
2022-10-30T03:59:48.988Z,101502.53
2022-10-30T04:02:34.843Z,101514.88
2022-10-30T04:05:02.318Z,101499.03
2022-10-30T04:07:29.953Z,101499.84
2022-10-30T04:09:57.496Z,101499.88
2022-10-30T04:12:25.017Z,101502.50
2022-10-30T04:14:53.816Z,101497.19
2022-10-30T04:17:21.399Z,101497.16
2022-10-30T04:19:49.440Z,101508.66
2022-10-30T04:22:17.001Z,101496.31
2022-10-30T04:24:45.404Z,101500.75
2022-10-30T04:27:13.335Z,101500.78
2022-10-30T04:29:42.259Z,101497.25
2022-10-30T04:32:10.733Z,101504.31
2022-10-30T04:34:39.555Z,101495.53
2022-10-30T04:37:07.996Z,101506.91
2022-10-30T04:39:35.741Z,101494.63
2022-10-30T04:42:12.993Z,101486.72
2022-10-30T04:44:42.944Z,101493.69
2022-10-30T04:47:10.759Z,101469.09
2022-10-30T04:49:38.699Z,101473.44
2022-10-30T04:52:06.299Z,101470.84
2022-10-30T04:54:33.755Z,101467.28
2022-10-30T04:57:02.313Z,101464.66
2022-10-30T04:59:30.615Z,101467.34
2022-10-30T05:01:58.073Z,101476.13
2022-10-30T05:04:25.804Z,101475.28
2022-10-30T05:06:56.543Z,101490.25
2022-10-30T05:09:24.295Z,101491.09
2022-10-30T05:11:53.889Z,101491.97
2022-10-30T05:14:25.001Z,101489.34
2022-10-30T05:16:52.619Z,101491.09
2022-10-30T05:19:20.189Z,101486.69
2022-10-30T05:21:53.482Z,101493.72
2022-10-30T05:24:21.173Z,101479.69
2022-10-30T05:26:49.216Z,101477.91
2022-10-30T05:29:17.294Z,101484.06
2022-10-30T05:31:45.333Z,101482.31
2022-10-30T05:34:24.983Z,101487.59
2022-10-30T05:36:54.229Z,101476.16
2022-10-30T05:39:22.421Z,101481.44
2022-10-30T05:41:51.945Z,101473.50
2022-10-30T05:44:29.192Z,101469.09
2022-10-30T05:47:11.923Z,101470.00
2022-10-30T05:49:47.690Z,101481.44
2022-10-30T05:52:19.700Z,101478.78
2022-10-30T05:54:48.805Z,101481.44
2022-10-30T05:57:22.682Z,101474.38
2022-10-30T05:59:50.450Z,101477.03
2022-10-30T06:02:18.220Z,101482.34
2022-10-30T06:05:03.207Z,101476.13
2022-10-30T06:07:31.402Z,101486.72
2022-10-30T06:09:59.349Z,101481.41
2022-10-30T06:12:59.798Z,101491.06
2022-10-30T06:15:45.510Z,101486.63
2022-10-30T06:18:13.472Z,101487.53
2022-10-30T06:20:46.066Z,101493.69
2022-10-30T06:23:48.727Z,101501.63
2022-10-30T06:26:29.933Z,101501.63
2022-10-30T06:29:02.396Z,101501.66
2022-10-30T06:31:31.110Z,101501.66
2022-10-30T06:34:00.889Z,101500.78
2022-10-30T06:36:29.917Z,101500.81
2022-10-30T06:38:58.883Z,101515.72
2022-10-30T06:41:30.741Z,101507.81
2022-10-30T06:44:21.555Z,101506.88
2022-10-30T06:46:49.151Z,101509.53
2022-10-30T06:49:17.562Z,101504.25
2022-10-30T06:51:45.496Z,101493.56
2022-10-30T06:54:15.923Z,101503.03
2022-10-30T06:56:43.410Z,101502.88
2022-10-30T06:59:35.356Z,101501.09
2022-10-30T07:02:23.280Z,101495.88
2022-10-30T07:05:13.900Z,101500.03
2022-10-30T07:07:41.393Z,101500.81
2022-10-30T07:10:09.695Z,101502.41
2022-10-30T07:13:01.999Z,101509.34
2022-10-30T07:15:50.085Z,101514.56
2022-10-30T07:18:24.852Z,101513.69
2022-10-30T07:21:23.124Z,101526.91
2022-10-30T07:23:53.022Z,101519.72
2022-10-30T07:26:43.564Z,101519.84
2022-10-30T07:29:31.966Z,101533.06
2022-10-30T07:32:25.786Z,101531.78
2022-10-30T07:35:12.351Z,101535.81
2022-10-30T07:38:05.213Z,101537.06
2022-10-30T07:40:53.641Z,101536.22
2022-10-30T07:43:39.727Z,101543.69
2022-10-30T07:46:27.517Z,101538.94
2022-10-30T07:49:06.290Z,101537.63
2022-10-30T07:51:42.744Z,101544.56
2022-10-30T07:54:12.449Z,101541.00
2022-10-30T07:56:39.962Z,101552.88
2022-10-30T07:59:26.192Z,101549.81
2022-10-30T08:02:19.734Z,101556.28
2022-10-30T08:05:19.854Z,101555.47
2022-10-30T08:08:05.753Z,101546.34
2022-10-30T08:10:34.395Z,101534.53
2022-10-30T08:13:07.056Z,101546.03
2022-10-30T08:15:35.112Z,101543.88
2022-10-30T08:18:03.458Z,101565.44
2022-10-30T08:20:32.513Z,101552.03
2022-10-30T08:23:00.553Z,101557.31
2022-10-30T08:25:30.443Z,101557.94
2022-10-30T08:28:00.032Z,101555.78
2022-10-30T08:30:34.936Z,101558.31
2022-10-30T08:33:06.975Z,101555.09
2022-10-30T08:36:00.413Z,101557.00
2022-10-30T08:38:28.724Z,101554.88
2022-10-30T08:41:24.037Z,101554.81
2022-10-30T08:43:53.347Z,101545.28
2022-10-30T08:46:21.122Z,101558.50
2022-10-30T08:48:49.037Z,101554.88
2022-10-30T08:51:16.637Z,101559.13
2022-10-30T08:53:50.362Z,101553.84
2022-10-30T08:56:18.673Z,101556.09
2022-10-30T08:58:59.036Z,101557.28
2022-10-30T09:01:26.636Z,101549.66
2022-10-30T09:04:20.605Z,101555.53
2022-10-30T09:07:12.878Z,101554.56
2022-10-30T09:09:49.831Z,101554.56
2022-10-30T09:12:17.562Z,101550.94
2022-10-30T09:17:58.089Z,101559.50
2022-10-30T09:20:31.873Z,101554.50
2022-10-30T09:23:01.389Z,101549.56
2022-10-30T09:25:29.368Z,101545.13
2022-10-30T09:29:13.117Z,101539.59
2022-10-30T09:37:55.711Z,101554.03
2022-10-30T10:02:00.210Z,101555.22
2022-10-30T10:04:39.373Z,101553.41
2022-10-30T10:07:32.523Z,101538.66
2022-10-30T10:10:53.619Z,101533.59
2022-10-30T10:13:38.792Z,101539.34
2022-10-30T10:16:20.495Z,101547.75
2022-10-30T10:22:22.113Z,101539.28
2022-10-30T10:24:50.243Z,101539.34
2022-10-30T10:27:32.902Z,101531.34
2022-10-30T10:30:09.803Z,101528.91
2022-10-30T10:33:01.590Z,101528.00
2022-10-30T10:35:48.229Z,101532.44
2022-10-30T10:38:54.030Z,101529.00
2022-10-30T10:41:53.445Z,101523.47
2022-10-30T10:45:25.112Z,101531.59
2022-10-30T10:48:17.291Z,101516.31
2022-10-30T10:55:18.787Z,101516.22
2022-10-30T10:57:59.536Z,101508.59
2022-10-30T11:00:31.610Z,101517.38
2022-10-30T11:03:50.984Z,101514.91
2022-10-30T11:06:27.357Z,101507.81
2022-10-30T12:34:49.786Z,101432.81
2022-10-30T12:37:20.987Z,101420.31
2022-10-30T12:40:10.917Z,101422.50
2022-10-30T12:56:49.538Z,101407.88
2022-10-30T12:59:35.709Z,101415.28
2022-10-30T13:02:17.337Z,101406.44
2022-10-30T13:04:52.942Z,101393.56
2022-10-30T13:07:32.673Z,101391.28
2022-10-30T13:10:29.110Z,101399.72
2022-10-30T13:13:03.414Z,101388.91
2022-10-30T13:15:42.304Z,101394.66
2022-10-30T13:18:19.396Z,101389.25
2022-10-30T13:21:02.452Z,101389.34
2022-10-30T13:24:18.978Z,101398.22
2022-10-30T13:27:16.787Z,101386.00
2022-10-30T13:30:20.032Z,101385.00
2022-10-30T13:52:45.317Z,101379.06
2022-10-30T13:59:38.213Z,101379.38
2022-10-30T14:07:17.355Z,101370.28
2022-10-30T14:10:09.272Z,101361.78
2022-10-30T14:13:13.400Z,101367.78
2022-10-30T14:19:09.211Z,101353.84
2022-10-30T14:21:45.099Z,101364.31
2022-10-30T14:29:38.909Z,101357.97
2022-10-30T14:32:18.726Z,101361.56
2022-10-30T14:47:14.608Z,101351.72
2022-10-30T14:49:57.710Z,101344.75
2022-10-30T14:53:03.432Z,101358.56
2022-10-30T14:55:35.942Z,101345.34
2022-10-30T14:58:05.938Z,101350.84
2022-10-30T15:05:45.803Z,101350.59
2022-10-30T15:08:31.489Z,101346.38
2022-10-30T15:11:25.333Z,101338.38
2022-10-30T15:13:59.048Z,101335.16
2022-10-30T15:16:29.281Z,101332.44
2022-10-30T15:19:04.852Z,101339.81
2022-10-30T15:21:43.859Z,101344.56
2022-10-30T15:24:20.959Z,101331.56
2022-10-30T15:26:58.604Z,101341.63
2022-10-30T15:29:30.278Z,101345.31
2022-10-30T15:32:24.996Z,101337.53
2022-10-30T15:35:03.214Z,101332.94
2022-10-30T15:37:32.732Z,101335.56
2022-10-30T15:40:20.555Z,101344.84
2022-10-30T15:42:51.332Z,101340.44
2022-10-30T15:45:46.945Z,101334.47
2022-10-30T15:48:30.786Z,101337.78
2022-10-30T15:51:01.875Z,101337.25
2022-10-30T15:53:38.260Z,101336.25
2022-10-30T15:56:11.757Z,101331.50
2022-10-30T15:58:43.185Z,101334.00
2022-10-30T16:01:25.470Z,101343.38
2022-10-30T16:03:54.712Z,101333.94
2022-10-30T16:06:27.081Z,101344.69
2022-10-30T16:09:18.039Z,101347.78
2022-10-30T16:11:55.338Z,101338.91
2022-10-30T16:14:44.396Z,101343.06
2022-10-30T16:17:28.950Z,101350.34
2022-10-30T16:20:14.994Z,101352.09
2022-10-30T16:52:19.808Z,101378.06
2022-10-30T16:55:04.347Z,101368.91
2022-10-30T16:57:37.131Z,101380.88
2022-10-30T17:00:05.943Z,101373.91
2022-10-30T17:02:43.755Z,101375.97
2022-10-30T17:05:20.511Z,101378.38
2022-10-30T17:07:58.920Z,101385.81
2022-10-30T17:11:01.830Z,101383.16
2022-10-30T17:13:33.641Z,101384.00
2022-10-30T17:16:20.358Z,101390.13
2022-10-30T17:18:54.096Z,101392.03
2022-10-30T17:21:36.895Z,101391.88
2022-10-30T17:24:05.103Z,101392.38
2022-10-30T17:26:41.357Z,101395.13
2022-10-30T17:29:37.562Z,101393.44
2022-10-30T17:32:31.331Z,101402.81
2022-10-30T17:35:09.917Z,101401.22
2022-10-30T17:37:37.939Z,101399.63
2022-10-30T17:40:07.004Z,101412.31
2022-10-30T17:42:35.006Z,101406.88
2022-10-30T17:45:07.327Z,101399.88
2022-10-30T17:47:37.153Z,101404.72
2022-10-30T17:50:06.329Z,101413.03
2022-10-30T17:52:37.306Z,101421.91
2022-10-30T17:55:21.957Z,101415.16
2022-10-30T17:57:49.941Z,101422.47
2022-10-30T18:00:21.305Z,101414.78
2022-10-30T18:02:49.286Z,101430.06
2022-10-30T18:05:22.054Z,101426.56
2022-10-30T18:07:54.313Z,101418.84
2022-10-30T18:10:23.085Z,101422.75
2022-10-30T18:14:28.607Z,101419.97
2022-10-30T18:34:31.369Z,101434.72
2022-10-30T18:36:59.012Z,101435.72
2022-10-30T18:39:26.914Z,101432.56
2022-10-30T18:41:57.421Z,101438.34
2022-10-30T18:44:32.329Z,101431.78
2022-10-30T18:47:03.194Z,101424.75
2022-10-30T18:49:33.504Z,101422.66
2022-10-30T18:52:01.347Z,101431.09
2022-10-30T18:54:29.038Z,101430.47
2022-10-30T18:56:59.978Z,101434.97
2022-10-30T18:59:27.662Z,101442.16
2022-10-30T19:01:56.804Z,101443.91
2022-10-30T19:04:24.456Z,101437.16
2022-10-30T19:06:52.019Z,101438.31
2022-10-30T19:09:19.587Z,101430.94
2022-10-30T19:11:47.148Z,101440.75
2022-10-30T19:14:16.026Z,101438.72
2022-10-30T19:16:43.693Z,101436.53
2022-10-30T19:19:15.132Z,101451.69
2022-10-30T19:21:42.834Z,101436.03
2022-10-30T19:24:15.118Z,101442.31
2022-10-30T19:26:42.759Z,101438.97
2022-10-30T19:29:10.396Z,101449.59
2022-10-30T19:31:38.004Z,101450.63
2022-10-30T19:34:05.569Z,101448.44
2022-10-30T19:36:36.581Z,101443.72
2022-10-30T19:39:22.195Z,101440.25
2022-10-30T19:41:49.827Z,101449.69
2022-10-30T19:44:18.452Z,101444.53
2022-10-30T19:46:46.013Z,101441.41
2022-10-30T19:49:19.826Z,101449.09
2022-10-30T19:51:47.577Z,101444.66
2022-10-30T19:54:15.233Z,101446.00
2022-10-30T19:56:44.103Z,101429.41
2022-10-30T19:59:15.405Z,101435.94
2022-10-30T20:01:44.735Z,101442.78
2022-10-30T20:04:13.059Z,101445.44
2022-10-30T20:06:40.707Z,101442.31
2022-10-30T20:09:13.043Z,101442.19
2022-10-30T20:11:40.652Z,101441.13
2022-10-30T20:14:08.266Z,101445.44
2022-10-30T20:16:35.896Z,101448.09
2022-10-30T20:19:26.720Z,101441.84
2022-10-30T20:21:55.506Z,101443.50
2022-10-30T20:24:23.576Z,101439.47
2022-10-30T20:26:51.986Z,101454.59
2022-10-30T20:29:19.704Z,101447.88
2022-10-30T20:32:16.208Z,101459.94
2022-10-30T20:34:48.761Z,101451.06
2022-10-30T20:37:16.592Z,101446.84
2022-10-30T20:39:44.360Z,101452.09
2022-10-30T20:42:13.592Z,101449.22
2022-10-30T20:44:41.299Z,101449.38
2022-10-30T20:47:09.029Z,101453.53
2022-10-30T20:49:36.741Z,101456.13
2022-10-30T20:52:04.371Z,101448.75
2022-10-30T20:54:34.378Z,101455.00
2022-10-30T20:57:02.091Z,101447.41
2022-10-30T20:59:29.893Z,101462.38
2022-10-30T21:01:57.561Z,101459.53
2022-10-30T21:04:25.310Z,101461.56
2022-10-30T21:06:53.027Z,101462.75
2022-10-30T21:09:21.052Z,101465.63
2022-10-30T21:11:48.715Z,101444.59
2022-10-30T21:14:16.557Z,101448.44
2022-10-30T21:16:44.271Z,101453.03
2022-10-30T21:19:12.081Z,101455.06
2022-10-30T21:21:43.217Z,101463.84
2022-10-30T21:24:13.149Z,101456.75
2022-10-30T21:26:40.821Z,101457.53
2022-10-30T21:29:08.604Z,101461.31
2022-10-30T21:31:36.168Z,101458.13
2022-10-30T21:34:03.804Z,101448.44
2022-10-30T21:36:31.337Z,101441.44
2022-10-30T21:39:01.257Z,101446.31
2022-10-30T21:41:28.943Z,101453.47
2022-10-30T21:43:58.323Z,101450.22
2022-10-30T21:46:29.452Z,101444.22
2022-10-30T21:49:01.848Z,101448.88
2022-10-30T21:51:29.558Z,101457.84
2022-10-30T21:53:57.403Z,101449.09
2022-10-30T21:56:26.899Z,101451.75
2022-10-30T21:59:04.869Z,101458.91
2022-10-30T22:04:47.839Z,101450.00
2022-10-30T22:07:18.559Z,101455.38
2022-10-30T22:09:46.782Z,101446.81
2022-10-30T22:12:14.832Z,101448.19
2022-10-30T22:14:42.840Z,101446.00
2022-10-30T22:17:13.015Z,101462.38
2022-10-30T22:19:40.676Z,101457.53
2022-10-30T22:22:09.264Z,101449.56
2022-10-30T22:24:36.902Z,101452.84
2022-10-30T22:27:04.678Z,101456.06
2022-10-30T22:29:33.780Z,101450.09
2022-10-30T22:32:01.443Z,101453.84
2022-10-30T22:34:29.226Z,101454.63
2022-10-30T22:36:57.030Z,101448.47
2022-10-30T22:39:25.751Z,101438.19
2022-10-30T22:41:58.358Z,101444.56
2022-10-30T22:44:28.802Z,101438.41
2022-10-30T22:46:59.231Z,101444.56
2022-10-30T22:49:27.030Z,101447.97
2022-10-30T22:51:56.008Z,101445.53
2022-10-30T22:54:26.710Z,101435.91
2022-10-30T22:56:56.036Z,101439.53
2022-10-30T22:59:23.746Z,101441.41
2022-10-30T23:01:51.452Z,101435.22
2022-10-30T23:04:20.354Z,101434.41
2022-10-30T23:09:33.504Z,101434.16
2022-10-30T23:12:01.692Z,101434.25
2022-10-30T23:14:31.552Z,101446.69
2022-10-30T23:16:59.362Z,101437.19
2022-10-30T23:19:28.526Z,101435.47
2022-10-30T23:21:57.435Z,101438.06
2022-10-30T23:24:26.302Z,101431.97
2022-10-30T23:26:54.037Z,101433.03
2022-10-30T23:29:21.764Z,101439.09
2022-10-30T23:31:49.451Z,101438.13
2022-10-30T23:34:17.397Z,101428.41
2022-10-30T23:36:46.153Z,101433.47
2022-10-30T23:39:16.673Z,101424.06
2022-10-30T23:41:44.849Z,101418.56
2022-10-30T23:44:15.410Z,101430.41
2022-10-30T23:46:43.575Z,101430.53
2022-10-30T23:49:12.633Z,101425.03
2022-10-30T23:51:40.412Z,101429.41
2022-10-30T23:54:10.379Z,101425.69
2022-10-30T23:56:38.341Z,101429.13
2022-10-30T23:59:09.802Z,101431.81
